PKMJ

Marshall Islands International Airport

Majuro Atoll, , Marshall Islands
PKMJ 181120Z 1812/1912 24008KT P6SM VCSH FEW015 SCT050 SCT120 FM181600 15008KT P6SM VCSH SCT015 SCT050 BKN120
Issued Valid From Valid To
Oct-18 @ 11:20 UTC
(an hour ago)
Oct-18 @ 12:00 UTC
(21 minutes ago)
Oct-19 @ 12:00 UTC
(in 24 hours)
Oct-18 @ 12:00 to Oct-18 @ 16:00
PKMJ 181120Z 1812/1912 24008KT P6SM VCSH FEW015 SCT050 SCT120
Wind Visibility Clouds
240° at 8 knots 10,000+ meters
  • Few at 1,500' AGL
  • Scattered at 5,000' AGL
  • Scattered at 12,000' AGL
From Oct-18 @ 16:00 to Oct-19 @ 12:00
FM181600 15008KT P6SM VCSH SCT015 SCT050 BKN120
Wind Visibility Clouds
150° at 8 knots 10,000+ meters
  • Scattered at 1,500' AGL
  • Scattered at 5,000' AGL
  • Broken at 12,000' AGL
PKMJ 181120Z 1812/1912 24008KT P6SM VCSH FEW015 SCT050 SCT120 FM181600 15008KT P6SM VCSH SCT015 SCT050 BKN120
Issued Oct-18 @ 11:20 UTC
(an hour ago)
Valid From Oct-18 @ 12:00 UTC
(21 minutes ago)
Valid To Oct-19 @ 12:00 UTC
(in 24 hours)
Oct-18 @ 12:00 - Oct-18 @ 16:00
Wind Visibility
240° at 8 knots 10,000+ meters
Clouds
  • Few at 1,500' AGL
  • Scattered at 5,000' AGL
  • Scattered at 12,000' AGL
From Oct-18 @ 16:00 - Oct-19 @ 12:00
Wind Visibility
150° at 8 knots 10,000+ meters
Clouds
  • Scattered at 1,500' AGL
  • Scattered at 5,000' AGL
  • Broken at 12,000' AGL